Mount Ida, AR (71957)

9:00 PM CDT on August 31, 2016 (GMT -0500)
Mount Ida | | Change Station

Elev 702 ft 34.55 °N, 93.58 °W | Updated 7 minutes ago

Partly Cloudy
Partly Cloudy
79 °F
Feels Like 79 °F
N
0
Wind Variable Wind from North

Today
High -- | Low -- °F
--% Chance of Precip.
Yesterday
High -- | Low -- °F
Precip. -- in
Pressure 29.93 in
Visibility 10.0 miles
Clouds Few 7500 ft
Dew Point 76 °F
Humidity 90%
Rainfall 0.00 in
Snow Depth Not available.
6:46 AM 7:40 PM
Waning Crescent, 0% visible
METAR KMWT 010153Z AUTO 00000KT 10SM FEW075 26/24 A2997 RMK AO2 SLP134 T02610244
Pressure 29.93 in
Visibility 10.0 miles
Clouds Few 7500 ft
Dew Point 76 °F
Humidity 90%
Rainfall 0.00 in
Snow Depth Not available.
6:46 AM 7:40 PM
Waning Crescent, 0% visible
METAR KMWT 010153Z AUTO 00000KT 10SM FEW075 26/24 A2997 RMK AO2 SLP134 T02610244

10-Day Weather Forecast

Almanac

Astronomy

Aug. 31, 2016 Rise Set
Actual Time
Civil Twilight
Nautical Twilight
Astronomical Twilight
Moon
Length of Visible Light
Length of Day
Tomorrow will be .
, % of the Moon is Illuminated

Today's Extremes

State Highs State Lows

Community

WunderPhotos

Upload Photos

1,936,266 photos uploaded!

WunderBlog® & News

Nearby

Air Quality

  Air Quality AQ Index Pollutant
Not available.

Snow Depth

Station Depth Elevation

Earthquake Activity

City Distance Mag. Time & Date
Minimum magnitude displayed is 2.5.

Coastal Water Temperatures

Place Temperature

Stations

Nearby Weather Stations

Station Location Temp. Windchill Dew Point Humidity Wind Precip. Elev Updated Type
                   

Watches & Warnings

There are currently no watches in effect.